Skip Navigation Links
NOAA logo - Click to go to the NOAA homepage
NOAA's National Weather Service
Alaska Aviation Weather Unit
  NWS logo - Click to go to the NWS homepage
Left Navbar Graphic     01 AKDT = 09 GMT

   
NOAA is celebrating 200 years of science, service, and stewardship. Visit the NOAA 200th celebration Web site to learn more.
USA.gov is the U.S. Government's official Web portal to all Federal, state and local government Web resources and services.
Facebook
NWS on Facebook

Important Change Regarding the AAWU Web Presence

 

Over the last several months, the AAWU has been working to navigate its webpages to a nationally supported server. Security, as well as other needs, have necessitated the change.  We have been given an extension for the site changeover while we diligently work at addressing feedback received. As of July 14, 2017, aawu.arh.noaa.gov will be discontinued. The new AAWU web address is weather.gov/aawu. It is now live and will run in-parallel with the old site until it is discontinued on July 14, 2017. Please continue to send any feedback or questions regarding the new webpages to nws.ar.aawu.webauthors@noaa.gov.  Thank you for your patience during this time of transition.
AAWU Home :: Display TAF Add Bookmark
TAF PADQ 190538Z 1906/2006  28008KT P6SM VCSH SCT050 BKN070
     FM192100 06005KT P6SM VCSH BKN035=


METAR PADQ 190353Z 29008KT 10SM CLR 16/08 A2972=

METAR PADQ 190453Z 30010KT 10SM CLR 14/08 A2972=

METAR PADQ 190553Z VRB03KT 10SM CLR 13/08 A2973=

METAR PADQ 190653Z AUTO 30004KT 10SM CLR 13/08 A2974=

METAR PADQ 190753Z AUTO 28004KT 10SM CLR 11/08 A2975=

METAR PADQ 190853Z AUTO 30004KT 10SM CLR 09/07 A2976=


NOAA's National Weather Service
Alaska Aviation Weather Unit
6930 Sand Lake Road
Anchorage, AK 99502-1845
Disclaimer
Credits
Glossary
Privacy Policy
About Us
Career Opportunities
Contact AAWU Internet Services Site last modified: April, 17th 2012